Time;durP1;ratioP1;P1;durP2;ratioP2;P2;SDS_P1;SDS_P2;PMS_P1;PMS_P2;Temp;Humidity;BMP_temperature;BMP_pressure;BME280_temperature;BME280_humidity;BME280_pressure;Samples;Min_cycle;Max_cycle;Signal;HPM_P1;HPM_P2
2022/01/15 00:00:07;;;;;;;;;122.00;99.25;;;;;3.47;79.99;102826.34;5008887;28;45355;-68
2022/01/15 00:02:33;;;;;;;;;116.00;100.75;;;;;3.44;79.95;102815.69;5014046;28;45469;-67
2022/01/15 00:04:58;;;;;;;;;107.50;92.00;;;;;3.44;80.49;102822.88;5008197;28;48061;-69
2022/01/15 00:07:23;;;;;;;;;107.75;93.25;;;;;3.44;80.27;102818.38;5012356;28;45378;-67
2022/01/15 00:09:50;;;;;;;;;117.50;94.00;;;;;3.42;80.49;102819.38;5012083;28;45418;-67
2022/01/15 00:12:16;;;;;;;;;119.33;101.00;;;;;3.42;80.64;102811.31;5008739;28;45551;-67
2022/01/15 00:14:42;;;;;;;;;110.75;98.00;;;;;3.46;80.28;102812.97;5013966;28;45291;-67
2022/01/15 00:17:15;;;;;;;;;112.00;96.75;;;;;3.41;80.41;102806.88;5020215;28;46751;-68
2022/01/15 00:19:42;;;;;;;;;110.00;97.50;;;;;3.39;80.38;102811.41;5023178;28;46769;-67
2022/01/15 00:22:16;;;;;;;;;117.25;103.50;;;;;3.37;80.04;102806.09;5025509;28;45728;-67
2022/01/15 00:24:43;;;;;;;;;129.33;111.00;;;;;3.27;80.75;102788.53;5023578;28;45479;-67
2022/01/15 00:27:09;;;;;;;;;110.50;100.25;;;;;3.32;80.53;102805.38;5036848;28;46526;-67
2022/01/15 00:29:35;;;;;;;;;124.33;108.67;;;;;3.33;80.36;102807.13;5011421;28;48286;-68
2022/01/15 00:32:03;;;;;;;;;119.75;98.25;;;;;3.33;80.45;102808.94;5020292;28;45468;-68
2022/01/15 00:34:28;;;;;;;;;120.75;105.50;;;;;3.27;80.33;102796.59;5008548;28;45502;-69
2022/01/15 00:36:54;;;;;;;;;123.33;108.00;;;;;3.27;80.33;102790.34;5015661;28;45442;-68
2022/01/15 00:39:19;;;;;;;;;132.67;111.00;;;;;3.24;80.43;102795.81;5004734;28;45478;-68
2022/01/15 00:41:45;;;;;;;;;98.33;76.67;;;;;3.26;81.04;102800.22;5018332;28;45295;-67
2022/01/15 00:44:10;;;;;;;;;127.33;104.67;;;;;3.23;80.56;102794.94;5005778;28;45785;-67
2022/01/15 00:46:36;;;;;;;;;125.33;105.00;;;;;3.19;80.62;102784.34;5009406;28;45488;-67
2022/01/15 00:49:01;;;;;;;;;118.33;106.33;;;;;3.18;80.94;102796.00;5006086;28;45447;-67
2022/01/15 00:51:27;;;;;;;;;134.00;119.67;;;;;3.19;81.16;102790.59;5013421;28;45497;-67
2022/01/15 00:53:52;;;;;;;;;127.67;114.33;;;;;3.16;81.49;102787.13;5007525;28;45320;-67
2022/01/15 00:56:17;;;;;;;;;124.67;110.67;;;;;3.15;81.05;102791.63;5010631;28;45493;-67
2022/01/15 00:58:43;;;;;;;;;132.33;115.33;;;;;3.16;81.43;102785.31;5006789;28;45682;-67
2022/01/15 01:01:08;;;;;;;;;132.33;115.67;;;;;3.12;81.24;102781.88;5008898;28;45415;-67
2022/01/15 01:03:34;;;;;;;;;121.33;104.67;;;;;3.14;81.64;102789.88;5006288;28;45520;-67
2022/01/15 01:05:59;;;;;;;;;136.33;110.33;;;;;3.14;81.05;102781.81;5011616;28;45375;-66
2022/01/15 01:08:25;;;;;;;;;124.00;106.67;;;;;3.09;81.22;102781.09;5023128;28;46001;-66
2022/01/15 01:10:56;;;;;;;;;123.33;103.67;;;;;3.07;81.44;102772.19;5012131;28;45398;-66
2022/01/15 01:22:19;;;;;;;;;121.33;105.67;;;;;3.06;80.92;102763.28;5014590;28;45505;-66
2022/01/15 01:24:21;;;;;;;;;119.00;104.67;;;;;3.02;81.39;102753.56;5004133;28;45265;-65
2022/01/15 01:32:26;;;;;;;;;127.00;103.00;;;;;2.98;81.88;102751.03;5010014;28;45543;-66
2022/01/15 01:34:52;;;;;;;;;127.67;110.33;;;;;2.94;81.75;102739.50;5008319;28;46647;-66
2022/01/15 01:37:32;;;;;;;;;137.33;113.00;;;;;2.94;81.52;102734.13;5025620;28;45441;-66
2022/01/15 01:40:15;;;;;;;;;121.50;105.75;;;;;2.98;81.71;102741.19;5015310;28;45424;-65
2022/01/15 01:42:50;;;;;;;;;111.00;101.25;;;;;2.96;81.56;102742.16;5007547;28;45311;-66
2022/01/15 01:45:15;;;;;;;;;121.67;99.00;;;;;2.96;81.83;102740.34;5004428;28;47617;-65
2022/01/15 01:47:44;;;;;;;;;134.67;108.00;;;;;2.95;81.71;102741.25;5004925;28;45346;-67
2022/01/15 01:50:09;;;;;;;;;124.75;99.75;;;;;2.94;81.69;102744.00;5010854;28;45541;-65
2022/01/15 01:52:35;;;;;;;;;126.33;114.67;;;;;2.91;81.59;102742.31;5023183;28;45620;-67
2022/01/15 01:55:01;;;;;;;;;125.33;104.33;;;;;2.90;82.05;102742.34;5032089;28;45388;-66
2022/01/15 01:57:26;;;;;;;;;133.67;110.33;;;;;2.88;81.63;102737.03;5024758;28;45302;-65
2022/01/15 01:59:52;;;;;;;;;130.00;108.67;;;;;2.87;81.44;102732.59;5049840;28;45983;-65
2022/01/15 02:02:17;;;;;;;;;115.00;103.75;;;;;2.88;81.55;102733.47;5026286;28;45369;-66
2022/01/15 02:04:42;;;;;;;;;120.75;102.75;;;;;2.85;81.58;102730.91;5049602;28;48266;-68
2022/01/15 02:07:08;;;;;;;;;129.33;113.67;;;;;2.86;82.04;102729.94;5026518;28;45406;-67
2022/01/15 02:09:34;;;;;;;;;128.67;105.00;;;;;2.84;81.90;102724.66;5036515;28;45499;-65
2022/01/15 02:11:59;;;;;;;;;106.33;88.67;;;;;2.84;82.32;102727.34;5026951;28;45644;-65
2022/01/15 02:14:29;;;;;;;;;126.67;109.67;;;;;2.84;82.28;102724.66;5037470;28;46443;-65
2022/01/15 02:16:56;;;;;;;;;123.33;112.00;;;;;2.82;82.67;102723.81;5027794;28;45327;-66
2022/01/15 02:19:32;;;;;;;;;139.67;114.00;;;;;2.78;82.01;102718.63;5026098;28;45427;-65
2022/01/15 02:24:41;;;;;;;;;126.33;113.33;;;;;2.70;82.25;102718.88;5013191;28;45681;-65
2022/01/15 02:27:06;;;;;;;;;112.00;98.67;;;;;2.69;82.21;102717.09;5028282;28;45389;-65
2022/01/15 02:29:32;;;;;;;;;137.33;118.00;;;;;2.71;82.68;102720.59;5032421;28;45328;-65
2022/01/15 02:31:57;;;;;;;;;122.33;106.00;;;;;2.69;82.62;102722.47;5029785;28;45636;-65
2022/01/15 02:34:22;;;;;;;;;131.67;116.33;;;;;2.70;82.89;102716.19;5044576;28;46320;-65
2022/01/15 02:36:48;;;;;;;;;125.67;101.67;;;;;2.71;82.69;102716.09;5030254;28;45361;-65
2022/01/15 02:39:13;;;;;;;;;115.00;101.25;;;;;2.70;83.04;102716.19;5045065;28;45298;-65
2022/01/15 02:41:40;;;;;;;;;121.00;101.00;;;;;2.73;83.07;102714.25;5026638;28;45319;-65
2022/01/15 02:44:14;;;;;;;;;114.50;105.50;;;;;2.77;82.48;102724.91;5033006;28;46973;-65
2022/01/15 02:49:14;;;;;;;;;115.33;98.00;;;;;2.70;82.29;102708.97;5035481;28;45441;-65
2022/01/15 02:51:40;;;;;;;;;110.50;99.50;;;;;2.65;82.20;102699.31;5028339;28;45328;-67
2022/01/15 02:54:06;;;;;;;;;120.50;105.50;;;;;2.67;82.78;102709.09;5034973;28;45454;-65
2022/01/15 02:56:35;;;;;;;;;123.67;101.67;;;;;2.67;82.46;102697.47;5030321;28;45309;-65
2022/01/15 02:59:03;;;;;;;;;114.00;96.67;;;;;2.66;82.76;102695.72;5036086;28;45338;-65
2022/01/15 03:01:29;;;;;;;;;111.50;92.75;;;;;2.64;82.49;102692.19;5031402;28;45476;-65
2022/01/15 03:03:54;;;;;;;;;108.25;95.00;;;;;2.63;82.68;102687.78;5036229;28;46436;-65
2022/01/15 03:06:20;;;;;;;;;110.00;93.75;;;;;2.61;82.54;102676.22;5031622;28;45906;-65
2022/01/15 03:08:47;;;;;;;;;112.25;101.50;;;;;2.62;82.60;102688.72;5052516;28;45371;-65
2022/01/15 03:11:13;;;;;;;;;109.75;99.50;;;;;2.60;82.42;102690.56;5033644;28;45622;-65
2022/01/15 03:13:40;;;;;;;;;115.25;99.25;;;;;2.59;82.31;102686.13;5037854;28;45499;-65
2022/01/15 03:16:07;;;;;;;;;108.25;97.50;;;;;2.59;82.27;102680.75;5034073;28;45716;-65
2022/01/15 03:18:33;;;;;;;;;103.00;81.50;;;;;2.51;81.83;102677.44;5028541;28;45458;-65
2022/01/15 03:20:58;;;;;;;;;116.25;103.25;;;;;2.48;81.57;102682.91;5029168;28;45325;-65
2022/01/15 03:23:23;;;;;;;;;114.00;95.75;;;;;2.49;81.75;102680.16;5035741;28;45402;-65
2022/01/15 03:25:49;;;;;;;;;108.75;90.25;;;;;2.45;82.17;102681.19;5026804;28;45385;-66
2022/01/15 03:28:14;;;;;;;;;106.50;91.75;;;;;2.47;81.95;102681.16;5028192;28;45372;-65
2022/01/15 03:30:39;;;;;;;;;112.00;97.50;;;;;2.48;82.13;102677.56;5032249;28;45464;-65
2022/01/15 03:33:06;;;;;;;;;106.50;88.00;;;;;2.38;82.06;102662.66;5035145;28;46602;-65
2022/01/15 03:35:33;;;;;;;;;97.75;78.50;;;;;2.46;81.78;102665.97;5034348;28;45477;-65
2022/01/15 03:37:58;;;;;;;;;106.00;87.75;;;;;2.46;81.56;102664.19;5035497;28;45660;-65
2022/01/15 03:40:23;;;;;;;;;102.75;85.75;;;;;2.42;81.75;102654.47;5034462;28;45402;-66
2022/01/15 03:42:49;;;;;;;;;102.50;84.25;;;;;2.36;81.43;102649.28;5024343;28;46114;-65
2022/01/15 03:45:16;;;;;;;;;107.75;87.25;;;;;2.35;81.88;102653.78;5035312;28;45409;-65
2022/01/15 03:47:44;;;;;;;;;104.75;84.75;;;;;2.34;81.89;102652.03;5025358;28;45300;-65
2022/01/15 03:50:10;;;;;;;;;108.50;88.00;;;;;2.32;81.71;102653.91;5035613;28;45437;-65
2022/01/15 03:52:35;;;;;;;;;105.50;89.50;;;;;2.31;81.97;102646.78;5021372;28;47269;-65
2022/01/15 03:55:02;;;;;;;;;107.25;90.00;;;;;2.31;82.25;102645.91;5034517;28;45436;-65
2022/01/15 03:57:27;;;;;;;;;108.75;92.00;;;;;2.30;81.94;102645.03;5027461;28;45386;-65
2022/01/15 03:59:52;;;;;;;;;110.00;98.00;;;;;2.29;82.00;102643.25;5037281;28;45375;-65
2022/01/15 04:02:18;;;;;;;;;114.75;101.25;;;;;2.28;81.80;102638.81;5028284;28;46301;-65
2022/01/15 04:04:43;;;;;;;;;107.75;96.00;;;;;2.27;82.24;102633.50;5036875;28;45413;-65
2022/01/15 04:07:09;;;;;;;;;120.00;102.25;;;;;2.28;82.11;102633.44;5029283;28;45438;-65
2022/01/15 04:09:34;;;;;;;;;111.67;102.33;;;;;2.26;82.03;102631.78;5039341;28;45631;-65
2022/01/15 04:12:00;;;;;;;;;112.33;99.33;;;;;2.24;82.21;102623.75;5030240;28;46356;-66
2022/01/15 04:14:25;;;;;;;;;124.67;104.00;;;;;2.26;82.21;102623.72;5039962;28;45375;-65
2022/01/15 04:16:50;;;;;;;;;119.00;106.33;;;;;2.21;82.09;102613.13;5031351;28;45494;-65
2022/01/15 04:19:16;;;;;;;;;116.33;98.00;;;;;2.22;82.14;102608.63;5028073;28;45477;-65
2022/01/15 04:21:41;;;;;;;;;122.00;104.33;;;;;2.23;82.06;102607.72;5022483;28;47469;-65
2022/01/15 04:24:07;;;;;;;;;130.00;103.67;;;;;2.21;82.02;102610.44;5035061;28;45415;-65
2022/01/15 04:26:32;;;;;;;;;118.67;101.00;;;;;2.22;81.85;102612.19;5023121;28;45462;-65
2022/01/15 04:29:06;;;;;;;;;114.00;95.00;;;;;2.17;81.67;102611.47;5031442;28;45332;-66
2022/01/15 04:31:49;;;;;;;;;120.75;102.25;;;;;2.17;81.81;102611.47;5033705;28;47560;-65
2022/01/15 04:34:25;;;;;;;;;107.33;99.67;;;;;2.11;82.07;102611.69;5018511;28;45372;-65
2022/01/15 04:36:52;;;;;;;;;125.33;110.67;;;;;2.08;81.67;102608.22;5028268;28;45493;-65
2022/01/15 04:39:17;;;;;;;;;121.00;103.33;;;;;2.06;82.17;102599.31;5043754;28;45456;-65
2022/01/15 04:41:43;;;;;;;;;120.50;100.25;;;;;2.03;82.44;102597.66;5023973;28;45759;-65
2022/01/15 04:44:09;;;;;;;;;114.00;99.00;;;;;2.06;82.02;102605.56;5031325;28;45722;-65
2022/01/15 04:46:35;;;;;;;;;118.00;101.50;;;;;2.01;82.11;102596.81;5033740;28;45817;-65
2022/01/15 04:49:00;;;;;;;;;114.33;104.00;;;;;1.89;81.85;102579.31;5030982;28;45471;-65
2022/01/15 04:51:26;;;;;;;;;119.00;101.67;;;;;1.95;82.05;102583.59;5028020;28;46546;-65
2022/01/15 04:53:51;;;;;;;;;123.33;107.33;;;;;1.94;81.83;102587.22;5032118;28;45393;-65
2022/01/15 04:56:17;;;;;;;;;109.50;95.50;;;;;1.95;82.39;102597.88;5028407;28;45682;-65
2022/01/15 04:58:42;;;;;;;;;112.50;95.00;;;;;1.97;81.76;102595.16;5048867;28;45316;-65
2022/01/15 05:01:07;;;;;;;;;112.00;98.00;;;;;1.95;81.49;102594.31;5025593;28;48142;-65
2022/01/15 05:03:33;;;;;;;;;123.67;111.67;;;;;1.87;81.83;102591.00;5034128;28;45352;-65
2022/01/15 05:05:59;;;;;;;;;113.75;96.25;;;;;1.87;81.85;102591.00;5022955;28;45422;-65
2022/01/15 05:08:24;;;;;;;;;116.33;99.00;;;;;1.81;82.24;102583.16;5035438;28;45539;-65
2022/01/15 05:10:50;;;;;;;;;116.00;104.75;;;;;1.86;82.34;102597.28;5031097;28;46021;-65
2022/01/15 05:13:20;;;;;;;;;122.25;102.00;;;;;1.87;82.79;102591.00;5034718;28;45549;-65
2022/01/15 05:15:45;;;;;;;;;110.75;95.25;;;;;1.86;82.51;102583.88;5032518;28;45370;-65
2022/01/15 05:18:11;;;;;;;;;111.75;90.75;;;;;1.79;82.46;102582.31;5029668;28;45338;-65
2022/01/15 05:20:41;;;;;;;;;119.67;106.00;;;;;1.78;82.91;102580.56;5026365;28;45437;-65
2022/01/15 05:23:06;;;;;;;;;111.50;97.25;;;;;1.82;83.04;102583.13;5030869;28;45346;-65
2022/01/15 05:25:32;;;;;;;;;108.50;88.75;;;;;1.82;83.21;102583.13;5027871;28;45377;-65
2022/01/15 05:27:57;;;;;;;;;117.75;102.50;;;;;1.76;83.18;102569.00;5026547;28;46191;-65
2022/01/15 05:30:23;;;;;;;;;100.50;75.50;;;;;1.85;82.73;102584.81;5031628;28;45413;-65
2022/01/15 05:32:48;;;;;;;;;118.75;100.50;;;;;1.83;83.19;102578.59;5031871;28;45447;-65
2022/01/15 05:35:14;;;;;;;;;109.50;92.75;;;;;1.86;82.86;102583.88;5037291;28;45375;-65
2022/01/15 05:37:39;;;;;;;;;114.75;94.75;;;;;1.83;82.89;102579.50;5049018;28;45406;-65
2022/01/15 05:40:06;;;;;;;;;108.25;88.75;;;;;1.82;82.67;102576.88;5034229;28;47699;-65
2022/01/15 05:42:32;;;;;;;;;109.25;86.75;;;;;1.83;82.55;102584.84;5023057;28;45449;-65
2022/01/15 05:44:57;;;;;;;;;109.50;92.75;;;;;1.84;82.58;102580.38;5034793;28;45375;-65
2022/01/15 05:47:22;;;;;;;;;105.75;85.75;;;;;1.85;82.71;102587.50;5024561;28;45394;-65
2022/01/15 05:49:49;;;;;;;;;107.00;88.25;;;;;1.86;82.93;102594.59;5034685;28;45528;-65
2022/01/15 05:52:14;;;;;;;;;108.75;91.25;;;;;1.91;82.43;102600.69;5024956;28;45374;-65
2022/01/15 05:54:39;;;;;;;;;105.75;83.25;;;;;1.89;82.45;102599.88;5033521;28;45335;-65
2022/01/15 05:57:05;;;;;;;;;106.75;90.25;;;;;1.87;82.43;102599.03;5024995;28;45349;-65
2022/01/15 05:59:30;;;;;;;;;111.00;90.75;;;;;1.86;82.90;102594.59;5035558;28;45319;-65
2022/01/15 06:01:55;;;;;;;;;104.75;86.75;;;;;1.89;82.49;102606.13;5026497;28;45433;-66
2022/01/15 06:04:21;;;;;;;;;105.75;89.75;;;;;1.86;82.59;102595.50;5034282;28;45325;-65
2022/01/15 06:06:46;;;;;;;;;112.50;90.25;;;;;1.89;82.89;102603.44;5026754;28;45295;-66
2022/01/15 06:09:11;;;;;;;;;113.25;96.25;;;;;1.88;82.97;102604.38;5034944;28;46871;-65
2022/01/15 06:11:39;;;;;;;;;110.25;94.25;;;;;1.93;83.10;102601.53;5029181;28;45350;-65
2022/01/15 06:14:05;;;;;;;;;123.67;107.33;;;;;1.91;83.13;102596.22;5036492;28;45457;-65
2022/01/15 06:16:30;;;;;;;;;107.25;91.00;;;;;1.91;83.57;102596.22;5025445;28;45302;-65
2022/01/15 06:18:55;;;;;;;;;108.50;98.25;;;;;1.93;83.36;102601.53;5023981;28;45622;-65
2022/01/15 06:21:21;;;;;;;;;117.00;95.00;;;;;1.91;83.26;102598.00;5025927;28;45523;-65
2022/01/15 06:23:46;;;;;;;;;105.00;88.00;;;;;1.92;83.45;102602.44;5050549;28;45368;-65
2022/01/15 06:26:12;;;;;;;;;111.50;92.75;;;;;1.91;83.43;102595.31;5023283;28;45424;-65
2022/01/15 06:28:38;;;;;;;;;106.75;88.50;;;;;1.96;83.37;102593.41;5026621;28;45461;-66
2022/01/15 06:31:03;;;;;;;;;117.50;85.75;;;;;1.95;83.34;102583.59;5030679;28;45429;-65
2022/01/15 06:33:28;;;;;;;;;111.00;95.50;;;;;1.95;83.16;102579.13;5036379;28;45469;-65
2022/01/15 06:35:54;;;;;;;;;110.25;94.75;;;;;1.97;82.88;102587.13;5029538;28;45409;-66
2022/01/15 06:38:19;;;;;;;;;104.75;80.50;;;;;1.99;83.05;102590.59;5023675;28;45916;-65
2022/01/15 06:40:45;;;;;;;;;109.00;88.75;;;;;1.99;82.70;102590.59;5031707;28;45422;-65
2022/01/15 06:43:10;;;;;;;;;101.50;83.50;;;;;1.95;82.58;102581.81;5024076;28;45266;-65
2022/01/15 06:45:36;;;;;;;;;106.50;89.75;;;;;1.95;82.52;102579.13;5025915;28;45411;-65
2022/01/15 06:48:02;;;;;;;;;105.75;89.50;;;;;1.96;82.61;102577.31;5025288;28;47207;-65
2022/01/15 06:50:29;;;;;;;;;109.00;89.50;;;;;1.93;82.52;102580.09;5042632;28;45400;-65
2022/01/15 06:52:56;;;;;;;;;103.75;84.75;;;;;1.94;82.37;102572.00;5026710;28;45363;-65
2022/01/15 06:55:21;;;;;;;;;105.50;87.75;;;;;1.90;82.27;102574.81;5033420;28;45461;-65
2022/01/15 06:57:47;;;;;;;;;113.00;87.50;;;;;1.89;82.36;102570.41;5026419;28;48018;-65
2022/01/15 07:00:14;;;;;;;;;110.25;93.75;;;;;1.87;82.70;102567.75;5033894;28;45424;-65
2022/01/15 07:02:39;;;;;;;;;116.25;92.75;;;;;1.91;82.80;102579.25;5029562;28;45271;-66
2022/01/15 07:05:06;;;;;;;;;110.00;95.50;;;;;1.87;82.36;102559.72;5032876;28;45544;-65
2022/01/15 07:07:32;;;;;;;;;59.25;35.25;;;;;1.84;82.25;102558.94;5030401;28;46605;-66
2022/01/15 07:09:57;;;;;;;;;99.75;76.00;;;;;1.85;82.46;102549.97;5038895;28;45422;-65
2022/01/15 07:12:23;;;;;;;;;110.25;90.50;;;;;1.86;82.42;102551.72;5034568;28;45401;-65
2022/01/15 07:14:48;;;;;;;;;116.50;99.00;;;;;1.83;82.78;102555.38;5056660;28;45499;-65
2022/01/15 07:17:14;;;;;;;;;113.33;99.33;;;;;1.82;83.10;102544.72;5033806;28;47964;-65
2022/01/15 07:19:39;;;;;;;;;109.75;98.75;;;;;1.85;82.81;102550.84;5018521;28;45532;-65
2022/01/15 07:22:06;;;;;;;;;111.50;96.50;;;;;1.84;82.97;102548.22;5040946;28;45349;-65
2022/01/15 07:24:31;;;;;;;;;111.00;92.00;;;;;1.84;82.87;102548.22;5037056;28;45499;-66
2022/01/15 07:26:58;;;;;;;;;110.00;101.00;;;;;1.84;82.83;102554.44;5038729;28;45457;-66
2022/01/15 07:29:24;;;;;;;;;115.67;99.33;;;;;1.85;82.36;102555.31;5049867;28;45534;-65
2022/01/15 07:31:52;;;;;;;;;116.75;102.00;;;;;1.82;82.36;102553.66;5027841;28;45369;-66
2022/01/15 07:34:19;;;;;;;;;111.50;95.00;;;;;1.84;82.74;102558.94;5044566;28;45487;-65
2022/01/15 07:36:50;;;;;;;;;111.25;98.00;;;;;1.85;82.70;102555.31;5025471;28;46372;-65
2022/01/15 07:39:15;;;;;;;;;112.25;96.50;;;;;1.82;82.51;102547.41;5059474;28;45663;-65
2022/01/15 07:41:42;;;;;;;;;114.50;96.50;;;;;1.86;82.63;102541.00;5024404;28;45267;-67
2022/01/15 07:44:07;;;;;;;;;112.50;95.75;;;;;1.84;82.36;102538.38;5032773;28;45416;-65
2022/01/15 07:46:33;;;;;;;;;110.75;99.25;;;;;1.83;82.14;102541.97;5029343;28;45446;-65
2022/01/15 07:48:58;;;;;;;;;108.00;90.50;;;;;1.75;82.33;102525.28;5032549;28;45310;-66
2022/01/15 07:51:23;;;;;;;;;110.75;91.25;;;;;1.87;82.67;102540.97;5028969;28;45417;-65
2022/01/15 07:53:49;;;;;;;;;116.75;99.25;;;;;1.89;82.76;102552.53;5034030;28;45431;-66
2022/01/15 07:56:14;;;;;;;;;103.75;85.25;;;;;1.92;82.84;102551.53;5026366;28;48055;-65
2022/01/15 07:58:39;;;;;;;;;114.25;93.00;;;;;1.85;83.04;102528.53;5049849;28;45376;-65
2022/01/15 08:01:05;;;;;;;;;106.75;86.50;;;;;1.98;82.94;102545.97;5030790;28;45535;-65
2022/01/15 08:03:31;;;;;;;;;97.75;80.50;;;;;2.00;82.58;102541.44;5035908;28;45540;-66
2022/01/15 08:05:56;;;;;;;;;108.25;94.50;;;;;2.06;82.08;102543.03;5030869;28;45752;-66
2022/01/15 08:08:22;;;;;;;;;112.50;90.25;;;;;2.04;81.43;102535.06;5035219;28;45432;-65
2022/01/15 08:10:47;;;;;;;;;111.25;93.00;;;;;1.95;81.92;102508.56;5025600;28;45406;-66
2022/01/15 08:13:12;;;;;;;;;106.75;86.25;;;;;2.11;81.92;102525.88;5037768;28;45378;-65
2022/01/15 08:15:38;;;;;;;;;107.50;85.75;;;;;2.15;81.57;102522.16;5033299;28;45500;-65
2022/01/15 08:18:03;;;;;;;;;111.25;90.25;;;;;2.21;81.80;102529.13;5031307;28;45414;-66
2022/01/15 08:20:29;;;;;;;;;103.25;82.50;;;;;2.19;82.08;102529.16;5026810;28;45409;-65
2022/01/15 08:22:55;;;;;;;;;110.50;93.50;;;;;2.22;81.85;102526.38;5041958;28;45510;-66
2022/01/15 08:25:22;;;;;;;;;109.00;89.75;;;;;2.31;82.13;102528.78;5028951;28;46249;-65
2022/01/15 08:27:49;;;;;;;;;112.25;91.75;;;;;2.35;81.76;102530.41;5025654;28;45525;-65
2022/01/15 08:30:15;;;;;;;;;111.00;97.25;;;;;2.37;81.41;102526.78;5044220;28;45266;-65
2022/01/15 08:32:41;;;;;;;;;102.25;84.25;;;;;2.44;81.80;102545.31;5022517;28;45611;-66
2022/01/15 08:35:08;;;;;;;;;104.00;85.25;;;;;2.52;81.56;102528.94;5037029;28;47051;-65
2022/01/15 08:37:37;;;;;;;;;101.75;79.25;;;;;2.55;81.36;102531.53;5037566;28;45338;-66
2022/01/15 08:40:04;;;;;;;;;90.00;67.00;;;;;2.62;81.10;102525.03;5033384;28;45515;-66
2022/01/15 08:42:29;;;;;;;;;101.50;85.00;;;;;2.61;80.76;102520.59;5023898;28;45591;-66
2022/01/15 08:44:54;;;;;;;;;105.50;88.00;;;;;2.76;80.81;102527.22;5016031;28;45544;-66
2022/01/15 08:47:20;;;;;;;;;118.25;97.00;;;;;2.73;80.45;102536.22;5025556;28;45372;-67
2022/01/15 08:49:45;;;;;;;;;116.00;96.25;;;;;2.80;81.08;102532.41;5035816;28;45330;-66
2022/01/15 08:52:10;;;;;;;;;100.00;85.00;;;;;2.85;80.13;102534.94;5027352;28;45322;-66
2022/01/15 08:54:36;;;;;;;;;107.25;94.25;;;;;2.87;80.48;102533.94;5013523;28;46468;-66
2022/01/15 08:57:02;;;;;;;;;101.75;81.00;;;;;2.95;80.30;102544.38;5028111;28;45393;-66
2022/01/15 08:59:27;;;;;;;;;112.50;100.00;;;;;2.94;80.37;102546.19;5013156;28;45433;-65
2022/01/15 09:01:55;;;;;;;;;105.75;85.75;;;;;2.82;81.36;102552.03;5014656;28;45429;-66
2022/01/15 09:04:21;;;;;;;;;113.25;91.75;;;;;2.85;81.38;102557.25;5008963;28;47652;-66
2022/01/15 09:06:46;;;;;;;;;111.25;85.50;;;;;2.90;81.15;102544.56;5009089;28;45343;-67
2022/01/15 09:09:12;;;;;;;;;107.50;90.25;;;;;3.04;80.54;102547.63;5005810;28;45256;-67
2022/01/15 09:11:37;;;;;;;;;101.50;85.00;;;;;2.96;80.33;102544.34;5009057;28;45136;-67
2022/01/15 09:14:03;;;;;;;;;107.00;86.50;;;;;2.93;80.50;102547.13;5009627;28;46600;-67
2022/01/15 09:16:28;;;;;;;;;100.50;85.75;;;;;3.01;80.69;102547.72;5009852;28;45717;-67
2022/01/15 09:18:56;;;;;;;;;105.25;81.25;;;;;3.01;80.50;102553.09;5007087;28;46099;-67
2022/01/15 09:21:21;;;;;;;;;108.50;89.75;;;;;2.99;80.51;102543.38;5023352;28;45491;-67
2022/01/15 09:23:47;;;;;;;;;103.50;88.00;;;;;3.02;80.55;102544.13;5007298;28;46318;-67
2022/01/15 09:26:20;;;;;;;;;104.25;86.75;;;;;3.08;80.54;102543.88;5018364;28;45413;-67
2022/01/15 09:31:30;;;;;;;;;108.25;90.25;;;;;3.05;81.23;102546.69;5014007;28;46110;-67
2022/01/15 09:33:55;;;;;;;;;111.75;97.50;;;;;3.15;80.88;102552.59;5010674;28;45429;-67
2022/01/15 09:36:21;;;;;;;;;116.75;100.50;;;;;3.24;80.71;102549.56;5006761;28;45501;-67
2022/01/15 09:38:46;;;;;;;;;108.25;92.75;;;;;3.33;80.41;102553.72;5004716;28;45296;-67
2022/01/15 09:41:13;;;;;;;;;94.25;74.75;;;;;3.32;79.82;102562.69;5021705;28;45586;-67
2022/01/15 09:43:39;;;;;;;;;114.00;98.00;;;;;3.12;80.01;102545.53;5025344;28;45270;-67
2022/01/15 09:46:06;;;;;;;;;106.50;90.50;;;;;3.21;80.95;102552.38;5039263;28;45439;-67
2022/01/15 09:48:33;;;;;;;;;116.50;97.25;;;;;3.24;80.16;102554.94;5027633;28;45328;-67
2022/01/15 09:51:00;;;;;;;;;113.50;97.00;;;;;3.20;80.80;102547.06;5030113;28;45531;-67
2022/01/15 09:53:25;;;;;;;;;110.25;95.75;;;;;3.29;80.76;102546.72;5030775;28;46266;-67
2022/01/15 09:55:52;;;;;;;;;112.75;94.25;;;;;3.39;80.95;102554.34;5027281;28;45385;-67
2022/01/15 09:58:18;;;;;;;;;121.33;104.00;;;;;3.44;80.79;102546.09;5047394;28;45708;-67
2022/01/15 10:00:45;;;;;;;;;118.00;101.75;;;;;3.46;80.19;102550.50;5030433;28;45559;-67
2022/01/15 10:03:11;;;;;;;;;111.50;94.75;;;;;3.56;80.27;102540.28;5031209;28;45501;-67
2022/01/15 10:05:36;;;;;;;;;114.00;102.75;;;;;3.62;80.31;102537.34;5031436;28;45440;-67
2022/01/15 10:08:09;;;;;;;;;132.00;109.00;;;;;3.69;79.58;102536.16;5032654;28;45371;-67
2022/01/15 10:10:35;;;;;;;;;108.25;95.25;;;;;3.75;79.32;102538.59;5033325;28;45365;-67
2022/01/15 10:13:20;;;;;;;;;112.25;103.75;;;;;3.81;79.22;102541.03;5035524;28;46316;-67
2022/01/15 10:15:48;;;;;;;;;107.00;88.00;;;;;3.88;79.10;102531.78;5031650;28;45474;-68
2022/01/15 10:18:23;;;;;;;;;121.50;102.50;;;;;3.96;78.87;102539.53;5023265;28;45350;-67
2022/01/15 10:20:50;;;;;;;;;105.33;95.67;;;;;4.03;78.87;102540.16;5029113;28;45558;-68
2022/01/15 10:23:20;;;;;;;;;133.00;113.67;;;;;4.10;78.08;102530.91;5047702;28;47040;-67
2022/01/15 10:26:15;;;;;;;;;127.00;110.67;;;;;4.13;78.04;102536.19;5026753;28;45325;-68
2022/01/15 10:28:51;;;;;;;;;129.33;111.67;;;;;4.15;77.99;102527.13;5043453;28;45326;-68
2022/01/15 10:31:42;;;;;;;;;127.33;106.67;;;;;4.23;77.66;102537.56;5031565;28;45357;-67
2022/01/15 10:34:31;;;;;;;;;119.33;107.00;;;;;4.24;77.41;102533.91;5041967;28;45357;-67
2022/01/15 10:37:08;;;;;;;;;91.00;66.00;;;;;4.30;77.45;102528.28;5022752;28;45243;-68
2022/01/15 10:39:33;;;;;;;;;131.33;114.33;;;;;4.30;77.42;102521.09;5032633;28;45389;-67
2022/01/15 10:41:58;;;;;;;;;115.33;103.67;;;;;4.30;77.21;102507.63;5024433;28;45967;-67
2022/01/15 10:44:36;;;;;;;;;124.33;108.33;;;;;4.38;77.27;102504.63;5035036;28;45575;-67
2022/01/15 10:47:04;;;;;;;;;123.33;105.67;;;;;4.50;77.20;102512.16;5028797;28;45491;-67
2022/01/15 10:49:30;;;;;;;;;125.00;108.67;;;;;4.54;77.17;102505.69;5054087;28;45373;-67
2022/01/15 10:52:11;;;;;;;;;124.00;106.33;;;;;4.60;77.02;102510.78;5029057;28;45618;-67
2022/01/15 10:54:57;;;;;;;;;130.67;112.00;;;;;4.65;76.93;102507.91;5039193;28;46468;-67
2022/01/15 10:57:25;;;;;;;;;135.67;111.67;;;;;4.68;76.83;102497.88;5029931;28;45323;-68
2022/01/15 10:59:59;;;;;;;;;118.33;107.33;;;;;4.78;76.94;102497.47;5038065;28;45372;-67
2022/01/15 11:02:25;;;;;;;;;129.67;114.67;;;;;4.81;76.45;102491.94;5042289;28;45591;-67
2022/01/15 11:04:50;;;;;;;;;134.67;116.00;;;;;4.81;76.17;102487.44;5039155;28;46372;-67
2022/01/15 11:07:17;;;;;;;;;140.00;122.67;;;;;4.87;76.33;102484.47;5031858;28;45432;-67
2022/01/15 11:09:44;;;;;;;;;146.67;121.67;;;;;4.96;76.62;102493.97;5042146;28;45301;-67
2022/01/15 11:12:10;;;;;;;;;130.00;114.67;;;;;5.00;75.92;102490.16;5033183;28;45691;-67
2022/01/15 11:14:36;;;;;;;;;126.67;116.33;;;;;5.05;76.14;102488.13;5042543;28;45456;-67
2022/01/15 11:17:02;;;;;;;;;154.00;131.33;;;;;5.07;75.96;102483.53;5035112;28;45431;-67
2022/01/15 11:19:30;;;;;;;;;150.67;129.33;;;;;5.18;75.74;102478.56;5031367;28;45251;-67
2022/01/15 11:21:58;;;;;;;;;153.67;132.33;;;;;5.12;75.54;102476.13;5026299;28;45410;-67
2022/01/15 11:24:23;;;;;;;;;150.33;132.33;;;;;5.23;75.38;102479.19;5036683;28;48014;-67
2022/01/15 11:26:55;;;;;;;;;137.67;125.67;;;;;5.28;75.39;102477.16;5026920;28;45490;-67